Aérodrome :
LOGIN :

S'inscrire | Disclaimer

   EN    FR    IT 

 










Légende :    VFR   VFR Marginal   IFR   IFR Intensif   IFR Très Intensif
Visi : 
Plafond : 
>= 8 km
>= 3000ft
5 à 8 km
1000 à 3000 ft
1500m à 5 km
500 à 1000 ft
800 à 1500m
200 à 500 ft
< 800m
< 200 ft
Symboles :   Orages  Brouillard  Fortes neiges  Fortes précipitations  Vent > 20 kt
SIGMETs :   Divers  Orages  Givrage  Turbulence  Onde Orograph.  Cendres Volcan.






- Altitude de l'aérodrome : 24 ft
- Code IATA : IBZ


LEIB - Ibiza

DERNIER METAR :
  • 282200Z VRB02KT CAVOK 19/14 Q1019 NOSIG

METARs EXPIRÉS :
  • 282130Z 35003KT 320V030 CAVOK 19/15 Q1019 NOSIG
  • 282100Z 08001KT CAVOK 19/15 Q1019 NOSIG
  • 282030Z VRB01KT CAVOK 20/15 Q1019 NOSIG
  • 282000Z 11002KT CAVOK 20/15 Q1019 NOSIG
  • 281930Z VRB02KT CAVOK 20/15 Q1018 NOSIG
  • 281900Z VRB02KT CAVOK 21/16 Q1018 NOSIG
  • 281830Z 09004KT 060V150 CAVOK 21/16 Q1018 NOSIG
  • 281800Z 11005KT 050V160 CAVOK 21/16 Q1018 NOSIG
  • 281730Z 09005KT 050V150 CAVOK 22/16 Q1018 NOSIG

TAF COR TAF LEIB
Valide du 28 à 21h jusqu'au 29 à 21h UTC


282046Z 2821/2921 VRB04KT 9999 FEW015 TX25/2912Z TN16/2905Z
PROB30
TEMPO 2900/2906 3000 BR BKN010
BECMG 2906/2909 14006KT



MET'MAP, la Météo Aéronautique d'un coup d'oeil ! - Copyright ORBIFLY Décembre 2007 - Disclaimer

ORBIFLY MET'MAP TEAM :

Programmation & Développement : Alexandra Zaïnal
Sur une idée originale de : Baudouin d'Aumeries
Soutien technique & logistique : Manuel Goepfert
Assistance : Marc-Olivier Méhu




SOURCES & CREDITS :

   NOAA